Time;durP1;ratioP1;P1;durP2;ratioP2;P2;SDS_P1;SDS_P2;PMS_P1;PMS_P2;Temp;Humidity;BMP_temperature;BMP_pressure;BME280_temperature;BME280_humidity;BME280_pressure;Samples;Min_cycle;Max_cycle;Signal;HPM_P1;HPM_P2
2022/03/09 00:01:02;;;;;;;30.77;17.20;;;;;;;0.81;64.90;97069.50;6191798;23;20169;-96
2022/03/09 00:03:44;;;;;;;33.70;17.73;;;;;;;0.99;64.44;97076.16;6174254;23;20200;-96
2022/03/09 00:06:28;;;;;;;35.83;18.37;;;;;;;0.54;63.97;96992.44;6219270;23;20169;-96
2022/03/09 00:09:11;;;;;;;34.20;17.67;;;;;;;0.38;63.93;96961.16;6198632;23;21022;-95
2022/03/09 00:11:51;;;;;;;27.93;16.93;;;;;;;1.12;63.99;97074.34;6197585;23;20177;-95
2022/03/09 00:14:19;;;;;;;29.00;16.43;;;;;;;0.78;64.14;97041.50;6216634;23;20169;-95
2022/03/09 00:17:06;;;;;;;31.73;16.53;;;;;;;1.06;63.42;97064.22;6220132;23;20294;-96
2022/03/09 00:19:35;;;;;;;32.33;17.60;;;;;;;0.60;64.44;97007.66;6168063;23;20285;-96
2022/03/09 00:22:06;;;;;;;31.30;17.53;;;;;;;0.46;63.92;96978.91;6242963;23;20621;-96
2022/03/09 00:24:39;;;;;;;28.23;16.67;;;;;;;0.44;64.47;96962.78;6193953;23;20176;-96
2022/03/09 00:27:21;;;;;;;35.30;18.53;;;;;;;0.90;63.71;97058.41;6191911;23;20252;-96
2022/03/09 00:29:51;;;;;;;32.50;17.13;;;;;;;0.83;64.14;97051.66;6169204;23;20177;-96
2022/03/09 00:32:32;;;;;;;30.53;17.33;;;;;;;0.79;64.60;97037.25;6192609;23;20177;-96
2022/03/09 00:35:15;;;;;;;28.70;16.30;;;;;;;0.79;64.80;97035.56;6195507;23;20173;-95
2022/03/09 00:37:53;;;;;;;32.50;17.33;;;;;;;0.97;65.14;97065.13;6173304;23;20192;-95
2022/03/09 00:40:22;;;;;;;30.57;16.53;;;;;;;0.90;65.41;97052.47;6170189;23;20201;-96
2022/03/09 00:43:04;;;;;;;32.47;17.27;;;;;;;0.56;65.57;97003.44;6247269;23;20173;-96
2022/03/09 00:45:46;;;;;;;30.80;17.63;;;;;;;0.35;65.11;96973.06;6220723;23;20173;-96
2022/03/09 00:48:48;;;;;;;31.07;15.80;;;;;;;0.83;65.54;97044.00;6201747;23;20244;-96
2022/03/09 00:51:32;;;;;;;33.47;17.43;;;;;;;0.63;65.96;97011.06;6203033;23;20169;-95
2022/03/09 00:54:15;;;;;;;34.00;17.83;;;;;;;0.64;65.04;97014.41;6162549;23;20169;-95
2022/03/09 00:56:57;;;;;;;34.17;17.40;;;;;;;0.51;64.55;96982.28;6228917;23;20169;-96
2022/03/09 00:59:25;;;;;;;33.40;16.23;;;;;;;0.31;65.02;96951.03;6227500;23;20201;-94
2022/03/09 01:01:57;;;;;;;32.20;16.63;;;;;;;0.54;64.75;96997.53;6226884;23;20227;-94
2022/03/09 01:04:38;;;;;;;32.37;16.63;;;;;;;0.84;65.28;97041.44;6196111;23;20164;-94
2022/03/09 01:07:06;;;;;;;37.83;18.90;;;;;;;0.66;64.55;97015.28;6167456;23;20196;-96
2022/03/09 01:09:47;;;;;;;34.30;17.23;;;;;;;0.70;64.82;97015.22;6172738;23;20222;-95
2022/03/09 01:12:29;;;;;;;31.93;17.10;;;;;;;0.49;64.77;96984.00;6173051;23;20177;-95
2022/03/09 01:15:10;;;;;;;35.97;17.83;;;;;;;0.35;65.21;96950.16;6216834;23;20201;-96
2022/03/09 01:17:51;;;;;;;30.50;17.80;;;;;;;0.36;64.84;96951.81;6193609;23;20184;-95
2022/03/09 01:20:32;;;;;;;34.87;19.33;;;;;;;0.64;65.05;97014.41;6194238;23;20172;-96
2022/03/09 01:23:01;;;;;;;29.07;15.97;;;;;;;0.86;64.68;97038.91;6214283;23;20204;-96
2022/03/09 01:25:42;;;;;;;31.77;16.97;;;;;;;0.26;64.80;96935.78;6210454;23;20173;-95
2022/03/09 01:28:23;;;;;;;31.63;17.50;;;;;;;1.02;64.90;97043.00;6214121;23;20180;-94
2022/03/09 01:31:04;;;;;;;32.40;16.87;;;;;;;-0.18;65.04;96857.19;6170534;23;20172;-95
2022/03/09 01:33:46;;;;;;;33.63;17.57;;;;;;;-0.12;65.60;96863.94;6193318;23;20176;-95
2022/03/09 01:36:29;;;;;;;34.60;17.43;;;;;;;0.73;65.19;97009.25;6191938;23;20600;-96
2022/03/09 01:39:10;;;;;;;34.57;17.00;;;;;;;0.00;65.84;96904.59;6171906;23;20200;-95
2022/03/09 01:41:41;;;;;;;30.07;16.60;;;;;;;0.18;65.88;96931.59;6191199;23;20196;-95
2022/03/09 01:44:24;;;;;;;33.70;16.33;;;;;;;0.36;65.50;96942.47;6218265;23;20621;-95
2022/03/09 01:47:05;;;;;;;31.70;16.70;;;;;;;0.70;66.34;97009.31;6190433;23;20625;-95
2022/03/09 01:49:48;;;;;;;31.20;15.67;;;;;;;0.86;65.80;97033.81;6213269;23;20180;-96
2022/03/09 01:52:29;;;;;;;32.60;17.07;;;;;;;0.23;67.03;96942.59;6171407;23;20176;-96
2022/03/09 01:55:12;;;;;;;33.27;16.47;;;;;;;0.69;67.43;97033.94;6171430;23;20270;-95
2022/03/09 01:57:54;;;;;;;34.97;17.73;;;;;;;0.12;67.24;96946.91;6196687;23;20222;-95
2022/03/09 02:00:37;;;;;;;30.97;16.50;;;;;;;0.23;68.02;96979.06;6200604;23;20172;-95
2022/03/09 02:03:18;;;;;;;32.27;16.13;;;;;;;0.29;67.65;96961.19;6192820;23;20172;-96
2022/03/09 02:06:03;;;;;;;32.77;16.53;;;;;;;-0.18;67.41;96889.41;6241920;23;20660;-96
2022/03/09 02:11:45;;;;;;;28.60;15.73;;;;;;;-0.12;66.59;96912.28;6195890;23;20173;-96
2022/03/09 02:14:26;;;;;;;30.53;16.23;;;;;;;0.01;67.36;96939.34;6192290;23;20636;-96
2022/03/09 02:17:13;;;;;;;32.30;17.57;;;;;;;-0.29;67.29;96888.66;6192234;23;20665;-96
2022/03/09 02:19:43;;;;;;;31.60;16.70;;;;;;;0.00;66.87;96943.56;6239395;23;20289;-95
2022/03/09 02:22:34;;;;;;;30.80;15.90;;;;;;;0.59;66.91;97031.47;6217171;23;20173;-95
2022/03/09 02:25:16;;;;;;;29.50;16.60;;;;;;;-0.06;66.96;96938.53;6193808;23;20165;-96
2022/03/09 02:28:01;;;;;;;35.23;16.97;;;;;;;-0.20;67.98;96919.97;6179785;23;20168;-96
2022/03/09 02:30:43;;;;;;;32.27;15.67;;;;;;;-0.08;67.96;96950.41;6240219;23;20200;-96
2022/03/09 02:33:25;;;;;;;30.93;17.13;;;;;;;-0.40;67.78;96876.00;6217346;23;20161;-96
2022/03/09 02:36:09;;;;;;;26.83;15.43;;;;;;;0.25;66.87;96977.34;6216208;23;20180;-95
2022/03/09 02:38:50;;;;;;;29.67;16.00;;;;;;;0.36;67.00;97002.75;6204727;23;20228;-96
2022/03/09 02:41:42;;;;;;;30.50;15.73;;;;;;;0.53;67.33;97027.25;6253320;23;20165;-96
2022/03/09 02:44:25;;;;;;;27.50;15.00;;;;;;;0.61;66.65;97032.28;6212555;23;20165;-95
2022/03/09 02:47:09;;;;;;;27.07;15.73;;;;;;;-0.01;66.63;96939.34;6228351;22;20169;-96
2022/03/09 02:50:11;;;;;;;28.40;16.07;;;;;;;0.40;66.47;96999.31;6223382;23;20180;-96
2022/03/09 02:52:56;;;;;;;29.63;15.27;;;;;;;-0.04;66.36;96930.88;6181257;23;20173;-96
2022/03/09 02:55:49;;;;;;;29.33;16.40;;;;;;;-0.22;66.96;96886.06;6227625;23;20164;-96
2022/03/09 02:58:38;;;;;;;31.30;16.07;;;;;;;0.13;66.65;96933.31;6199938;23;20205;-96
2022/03/09 03:01:21;;;;;;;27.10;15.37;;;;;;;0.64;65.39;97009.31;6175309;23;20173;-95
2022/03/09 03:04:03;;;;;;;29.70;15.97;;;;;;;0.47;66.12;96980.63;6174932;23;20618;-96
2022/03/09 03:06:46;;;;;;;27.53;15.30;;;;;;;0.36;65.68;96957.75;6197838;23;20236;-96
2022/03/09 03:09:29;;;;;;;32.80;16.57;;;;;;;0.41;65.84;96955.19;6201573;23;20169;-96
2022/03/09 03:12:10;;;;;;;28.23;16.10;;;;;;;0.66;65.08;96988.09;6174930;23;20176;-96
2022/03/09 03:15:05;;;;;;;23.20;15.43;;;;;;;0.26;65.41;96929.84;6225475;22;20169;-96
2022/03/09 03:17:47;;;;;;;30.77;16.10;;;;;;;0.24;65.94;96919.66;6180679;22;20223;-96
2022/03/09 03:20:30;;;;;;;31.27;15.83;;;;;;;0.94;65.20;97013.34;6246651;22;20223;-96
2022/03/09 03:23:12;;;;;;;29.47;15.30;;;;;;;0.53;65.36;96989.06;6222327;22;20169;-96
2022/03/09 03:25:54;;;;;;;30.00;15.37;;;;;;;-0.27;65.01;96862.31;6177626;22;20168;-96
2022/03/09 03:28:35;;;;;;;29.70;16.23;;;;;;;0.55;65.46;97001.78;6223948;22;20191;-95
2022/03/09 03:31:16;;;;;;;31.23;15.93;;;;;;;0.41;66.13;96990.84;6195554;22;20173;-95
2022/03/09 03:33:58;;;;;;;31.17;15.33;;;;;;;0.75;64.50;97013.50;6224188;22;20168;-95
2022/03/09 03:36:39;;;;;;;27.47;15.43;;;;;;;0.73;65.14;97004.16;6198677;22;20168;-96
2022/03/09 03:39:21;;;;;;;27.97;15.20;;;;;;;0.77;65.36;97016.03;6221026;22;20203;-96
2022/03/09 03:42:03;;;;;;;31.80;16.00;;;;;;;0.33;65.78;96922.13;6177192;22;20172;-96
2022/03/09 03:44:45;;;;;;;29.70;16.20;;;;;;;0.06;65.36;96901.13;6178001;22;20164;-96
2022/03/09 03:47:17;;;;;;;30.40;15.77;;;;;;;-0.14;65.63;96894.47;6197949;22;20176;-96
2022/03/09 03:49:58;;;;;;;33.53;16.63;;;;;;;0.03;65.68;96918.97;6202314;22;20260;-96
2022/03/09 03:52:40;;;;;;;29.00;15.70;;;;;;;0.32;65.57;96985.81;6202008;22;20229;-96
2022/03/09 03:55:25;;;;;;;30.07;15.73;;;;;;;0.29;65.42;96993.47;6224352;22;20183;-96
2022/03/09 03:58:07;;;;;;;31.40;16.13;;;;;;;0.32;66.43;97006.19;6200172;22;20169;-96
2022/03/09 04:00:50;;;;;;;32.83;16.73;;;;;;;-0.20;66.23;96921.66;6225597;22;20172;-95
2022/03/09 04:03:33;;;;;;;32.97;16.77;;;;;;;0.32;66.05;96993.44;6198326;22;20230;-96
2022/03/09 04:06:14;;;;;;;27.80;16.20;;;;;;;0.25;65.93;96996.91;6156905;22;20232;-96
2022/03/09 04:08:55;;;;;;;35.47;17.87;;;;;;;-0.55;66.83;96901.50;6198660;22;20220;-96
2022/03/09 04:11:38;;;;;;;30.13;15.47;;;;;;;-0.34;67.06;96929.38;6224635;22;20237;-96
2022/03/09 04:14:34;;;;;;;32.73;16.20;;;;;;;0.30;66.03;97018.94;6225626;22;20168;-96
2022/03/09 04:17:16;;;;;;;30.77;17.37;;;;;;;-0.13;66.71;96931.81;6202868;22;20195;-96
2022/03/09 04:36:09;;;;;;;27.63;16.13;;;;;;;-0.81;66.29;96849.94;6298923;22;20216;-96
2022/03/09 04:39:32;;;;;;;33.37;18.03;;;;;;;0.20;66.00;97017.28;6193746;23;20233;-95
2022/03/09 04:42:11;;;;;;;33.47;18.47;;;;;;;-0.35;67.16;96911.59;6156674;23;20197;-96
2022/03/09 04:44:57;;;;;;;40.07;18.10;;;;;;;0.33;66.79;97028.25;6129817;23;20248;-94
2022/03/09 04:48:26;;;;;;;33.00;18.13;;;;;;;0.17;66.29;96975.72;6145921;23;20182;-95
2022/03/09 04:51:09;;;;;;;35.80;18.13;;;;;;;-0.37;67.13;96888.69;6053708;23;20172;-96
2022/03/09 04:53:52;;;;;;;29.83;16.77;;;;;;;-0.62;67.17;96855.78;6105765;23;20167;-96
2022/03/09 04:56:24;;;;;;;34.23;18.77;;;;;;;-0.30;66.26;96925.97;6095493;23;20198;-96
2022/03/09 05:02:19;;;;;;;33.80;16.63;;;;;;;-0.55;67.26;96881.16;6233880;22;20275;-96
2022/03/09 05:05:02;;;;;;;33.03;17.63;;;;;;;-0.24;66.47;96932.69;6195403;22;20730;-95
2022/03/09 05:07:31;;;;;;;28.90;15.93;;;;;;;0.02;66.79;96998.72;6197205;22;20529;-96
2022/03/09 05:09:59;;;;;;;35.90;16.97;;;;;;;-0.01;65.87;96997.91;6222665;22;20172;-93
2022/03/09 05:12:26;;;;;;;34.57;17.83;;;;;;;0.14;66.36;97001.22;6222188;22;20200;-96
2022/03/09 05:14:53;;;;;;;38.40;19.07;;;;;;;0.42;66.07;97039.22;6223208;22;20188;-95
2022/03/09 05:17:20;;;;;;;37.93;18.23;;;;;;;0.41;65.74;97018.84;6221572;22;20264;-93
2022/03/09 05:19:47;;;;;;;35.13;18.83;;;;;;;0.56;65.42;97042.50;6202328;22;20260;-94
2022/03/09 05:22:14;;;;;;;35.50;18.60;;;;;;;0.24;66.20;96990.09;6197022;22;20729;-95
2022/03/09 05:24:51;;;;;;;33.87;18.17;;;;;;;0.49;65.77;97019.66;6204387;22;20202;-95
2022/03/09 05:27:18;;;;;;;31.90;17.23;;;;;;;0.49;64.70;97022.19;6226266;22;20168;-94
2022/03/09 05:29:45;;;;;;;31.77;17.90;;;;;;;0.46;65.53;97024.75;6200884;22;20168;-96
2022/03/09 05:32:14;;;;;;;31.57;17.70;;;;;;;-0.13;65.88;96941.13;6203608;22;20256;-96
2022/03/09 05:34:42;;;;;;;35.40;19.07;;;;;;;-0.54;65.07;96866.75;6225372;22;20489;-96
2022/03/09 05:37:10;;;;;;;33.20;18.03;;;;;;;0.25;65.75;96995.19;6201867;22;20168;-96
2022/03/09 05:39:39;;;;;;;27.90;16.20;;;;;;;0.25;65.20;96962.06;6200215;22;20196;-96
2022/03/09 05:42:09;;;;;;;33.03;17.53;;;;;;;-0.02;65.58;96945.28;6201737;22;20255;-96
2022/03/09 05:44:38;;;;;;;33.97;17.33;;;;;;;0.36;65.63;96997.66;6200191;22;20263;-96
2022/03/09 05:47:06;;;;;;;35.40;17.57;;;;;;;0.57;63.99;97007.69;6226974;22;20196;-96
2022/03/09 05:49:35;;;;;;;40.37;18.40;;;;;;;0.67;64.27;97014.41;6228614;22;20169;-96
2022/03/09 05:52:04;;;;;;;33.97;18.33;;;;;;;0.83;64.72;97037.22;6201263;22;20168;-96
2022/03/09 05:54:32;;;;;;;31.73;17.40;;;;;;;0.02;63.64;96879.97;6203143;22;20254;-96
2022/03/09 05:57:00;;;;;;;29.97;16.20;;;;;;;0.73;64.24;96999.06;6202556;22;20192;-96
2022/03/09 05:59:29;;;;;;;32.90;18.23;;;;;;;0.49;63.38;96963.63;6206357;22;20263;-96
2022/03/09 06:01:56;;;;;;;30.10;16.50;;;;;;;0.87;63.22;97043.13;6202181;22;20235;-96
2022/03/09 06:04:25;;;;;;;31.20;17.30;;;;;;;0.38;63.27;96945.88;6234575;22;20621;-96
2022/03/09 06:06:53;;;;;;;30.83;16.60;;;;;;;0.63;62.89;97003.41;6242574;22;20198;-95
2022/03/09 06:09:21;;;;;;;31.80;16.37;;;;;;;1.02;62.94;97072.75;6241509;22;20192;-96
2022/03/09 06:11:48;;;;;;;24.40;14.37;;;;;;;0.87;62.74;97062.69;6214129;22;20255;-96
2022/03/09 06:14:15;;;;;;;29.87;17.13;;;;;;;0.63;62.74;97015.28;6228075;22;20223;-95
2022/03/09 06:16:43;;;;;;;27.23;15.13;;;;;;;0.70;62.74;97024.59;6212191;22;20164;-95
2022/03/09 06:19:11;;;;;;;29.80;16.73;;;;;;;1.01;62.53;97079.53;6236066;22;20302;-96
2022/03/09 06:21:42;;;;;;;24.97;15.10;;;;;;;0.55;61.96;96987.34;6212026;22;20258;-95
2022/03/09 06:24:12;;;;;;;25.90;15.87;;;;;;;1.02;61.86;97078.69;6229092;22;20191;-96
2022/03/09 06:26:39;;;;;;;28.33;16.67;;;;;;;0.43;62.53;96973.84;6230766;22;20220;-96
2022/03/09 06:29:08;;;;;;;29.23;15.83;;;;;;;0.44;63.93;96990.81;6181867;22;20184;-96
2022/03/09 06:31:36;;;;;;;24.97;15.37;;;;;;;0.70;62.25;97039.88;6206586;22;20172;-96
2022/03/09 06:34:05;;;;;;;28.80;15.87;;;;;;;0.33;62.49;96987.50;6209545;22;20234;-96
2022/03/09 06:36:33;;;;;;;27.20;15.93;;;;;;;0.56;62.50;97011.09;6240327;22;20168;-96
2022/03/09 06:39:28;;;;;;;26.63;15.37;;;;;;;0.97;63.01;97079.59;6243456;22;20192;-95
2022/03/09 06:41:57;;;;;;;26.30;14.53;;;;;;;0.75;61.16;97050.88;6212449;22;20169;-96
2022/03/09 06:44:24;;;;;;;25.57;14.40;;;;;;;0.64;60.89;97015.28;6215943;22;20187;-96
2022/03/09 06:46:51;;;;;;;24.57;14.97;;;;;;;0.79;61.59;97047.44;6242137;22;20169;-95
2022/03/09 06:49:20;;;;;;;28.80;13.27;;;;;;;0.81;60.34;97038.06;6241829;22;20172;-96
2022/03/09 06:51:49;;;;;;;29.20;14.53;;;;;;;1.22;61.08;97099.78;6212630;22;20195;-95
2022/03/09 06:54:18;;;;;;;23.40;13.20;;;;;;;1.37;60.31;97088.59;6233137;22;20164;-95
2022/03/09 06:56:53;;;;;;;23.13;13.30;;;;;;;1.00;60.18;97033.69;6234095;22;20168;-96
2022/03/09 06:59:20;;;;;;;26.53;14.30;;;;;;;1.56;59.21;97088.41;6234357;22;20226;-95
2022/03/09 07:01:50;;;;;;;26.80;15.73;;;;;;;1.60;59.47;97095.19;6260421;22;20259;-96
2022/03/09 07:04:18;;;;;;;26.27;14.13;;;;;;;1.41;59.49;97078.34;6206583;22;20184;-96
2022/03/09 07:06:49;;;;;;;22.63;12.57;;;;;;;1.26;58.66;97041.91;6206143;22;20526;-96
2022/03/09 07:09:16;;;;;;;26.47;14.27;;;;;;;1.59;58.66;97060.31;6231205;22;20179;-96
2022/03/09 07:11:45;;;;;;;25.10;14.23;;;;;;;1.32;57.28;96995.97;6207921;22;20168;-96
2022/03/09 07:14:15;;;;;;;26.43;14.00;;;;;;;1.89;57.23;97106.78;6231115;22;20164;-95
2022/03/09 07:16:42;;;;;;;20.30;11.83;;;;;;;1.83;55.78;97091.53;6230281;22;20169;-96
2022/03/09 07:19:14;;;;;;;22.50;12.53;;;;;;;1.63;56.58;97066.22;6207867;22;20219;-96
2022/03/09 07:21:41;;;;;;;24.93;14.90;;;;;;;0.86;57.25;96918.25;6180833;22;20201;-96
2022/03/09 07:24:13;;;;;;;24.33;14.27;;;;;;;1.33;57.52;97005.31;6232450;22;20172;-96
2022/03/09 07:26:42;;;;;;;22.60;13.80;;;;;;;1.28;58.01;97000.25;6233175;22;20222;-96
2022/03/09 07:29:13;;;;;;;24.47;14.47;;;;;;;1.64;57.26;97029.63;6233891;22;20168;-95
2022/03/09 07:31:44;;;;;;;28.10;14.17;;;;;;;1.58;56.93;96993.97;6206246;22;20173;-96
2022/03/09 07:34:12;;;;;;;22.93;12.63;;;;;;;1.36;57.43;96995.09;6158574;22;20220;-96
2022/03/09 07:36:40;;;;;;;24.90;13.40;;;;;;;1.69;57.83;97076.34;6243449;22;20183;-95
2022/03/09 07:39:09;;;;;;;22.80;13.30;;;;;;;2.00;57.00;97099.84;6235086;22;20179;-96
2022/03/09 07:41:41;;;;;;;25.33;13.80;;;;;;;1.23;57.75;97002.03;6245821;22;20172;-96
2022/03/09 07:44:10;;;;;;;22.67;13.50;;;;;;;1.44;57.44;97017.06;6218535;22;20164;-96
2022/03/09 07:46:39;;;;;;;25.80;13.27;;;;;;;1.37;57.66;96984.84;6247153;22;20182;-96
2022/03/09 07:49:08;;;;;;;22.43;13.33;;;;;;;1.72;57.66;97001.47;6221700;22;20169;-95
2022/03/09 07:51:37;;;;;;;22.93;14.07;;;;;;;1.28;56.24;96915.22;6249686;22;20173;-96
2022/03/09 07:54:06;;;;;;;27.63;14.57;;;;;;;2.38;56.56;97090.00;6248853;22;20188;-96
2022/03/09 07:56:35;;;;;;;21.73;13.97;;;;;;;1.53;57.62;96975.31;6199496;22;20168;-96
2022/03/09 07:59:05;;;;;;;22.87;13.67;;;;;;;2.30;55.78;97100.34;6225427;22;20176;-95
2022/03/09 08:01:35;;;;;;;24.53;14.63;;;;;;;1.25;56.15;96907.63;6220607;22;20225;-96
2022/03/09 08:04:08;;;;;;;26.63;14.80;;;;;;;2.18;56.57;97044.28;6239560;22;20187;-96
2022/03/09 08:06:40;;;;;;;25.13;14.10;;;;;;;1.81;55.94;97011.56;6231730;22;20169;-95
2022/03/09 08:09:08;;;;;;;22.30;12.77;;;;;;;2.34;55.65;97055.13;6202472;22;20165;-96
2022/03/09 08:11:36;;;;;;;24.03;14.00;;;;;;;2.63;55.42;97083.69;6228749;22;20179;-96
2022/03/09 08:14:04;;;;;;;25.33;14.73;;;;;;;1.96;56.42;97031.81;6212305;22;20168;-95
2022/03/09 08:16:33;;;;;;;19.33;11.77;;;;;;;1.44;55.08;96948.19;6235789;22;20180;-96
2022/03/09 08:19:10;;;;;;;22.53;13.30;;;;;;;1.85;55.83;97011.53;6209252;22;20251;-95
2022/03/09 08:21:40;;;;;;;22.60;12.87;;;;;;;2.27;56.94;97084.19;6225647;22;20177;-96
2022/03/09 08:24:11;;;;;;;26.10;13.10;;;;;;;2.29;56.18;97090.97;6228300;22;20176;-95
2022/03/09 08:26:38;;;;;;;22.87;13.30;;;;;;;1.60;55.83;96994.81;6200979;22;20173;-96
2022/03/09 08:29:09;;;;;;;22.17;12.57;;;;;;;1.67;55.80;96995.59;6200751;22;20522;-96
2022/03/09 08:31:36;;;;;;;21.00;12.87;;;;;;;2.07;56.65;97081.03;6251373;22;20169;-96
2022/03/09 08:34:09;;;;;;;23.83;13.80;;;;;;;1.91;56.69;97002.94;6202469;22;20609;-96
2022/03/09 08:36:44;;;;;;;25.30;14.80;;;;;;;2.66;55.40;97085.38;6228316;22;20173;-96
2022/03/09 08:39:31;;;;;;;29.17;14.97;;;;;;;2.06;56.53;97001.00;6208703;22;20709;-96
2022/03/09 08:42:16;;;;;;;22.93;12.47;;;;;;;2.11;55.10;96988.19;6202657;22;20609;-96
2022/03/09 08:44:45;;;;;;;20.60;12.70;;;;;;;2.26;54.17;97027.16;6205545;22;20620;-95
2022/03/09 08:47:13;;;;;;;21.13;11.47;;;;;;;2.10;55.05;96994.19;6200228;22;20203;-96
2022/03/09 08:49:42;;;;;;;23.50;13.50;;;;;;;2.26;55.26;97016.09;6202663;22;20252;-96
2022/03/09 08:52:11;;;;;;;20.80;12.63;;;;;;;2.32;55.25;97026.22;6225112;22;20298;-96
2022/03/09 08:54:42;;;;;;;19.23;10.73;;;;;;;1.87;55.06;96965.53;6202718;22;20184;-96
2022/03/09 08:57:11;;;;;;;22.03;13.27;;;;;;;2.18;55.29;96997.47;6204343;22;20157;-96
2022/03/09 08:59:39;;;;;;;20.90;13.03;;;;;;;2.43;53.77;97040.50;6200627;22;20196;-96
2022/03/09 09:02:08;;;;;;;22.43;11.63;;;;;;;2.48;54.66;97063.47;6227541;22;20207;-96
2022/03/09 09:04:36;;;;;;;19.03;11.53;;;;;;;2.27;55.03;97005.84;6175853;22;20206;-96
2022/03/09 09:07:12;;;;;;;19.90;12.83;;;;;;;2.81;54.40;97073.19;6204525;22;20230;-96
2022/03/09 09:09:51;;;;;;;28.63;14.80;;;;;;;2.50;54.83;97005.50;6229496;22;20168;-96
2022/03/09 09:12:46;;;;;;;29.33;14.20;;;;;;;2.08;51.97;96920.13;6266343;22;20243;-96
2022/03/09 09:15:22;;;;;;;36.30;17.90;;;;;;;2.49;53.59;97012.31;6216597;22;20168;-96
2022/03/09 09:18:12;;;;;;;29.73;17.50;;;;;;;2.97;54.04;97059.31;6241945;22;20249;-96
2022/03/09 09:20:53;;;;;;;29.43;15.70;;;;;;;3.02;54.48;97072.88;6200136;22;20200;-95
2022/03/09 09:23:25;;;;;;;26.73;14.50;;;;;;;3.13;53.63;97068.41;6251710;22;20164;-95
2022/03/09 09:25:56;;;;;;;26.70;15.27;;;;;;;2.67;53.09;97002.69;6205796;22;20199;-96
2022/03/09 09:28:24;;;;;;;21.17;13.60;;;;;;;2.89;53.25;97040.69;6208020;22;20169;-96
2022/03/09 09:30:54;;;;;;;15.00;9.70;;;;;;;1.99;51.79;96896.44;6243446;22;20235;-96
2022/03/09 09:33:28;;;;;;;16.83;11.40;;;;;;;2.66;51.73;97011.25;6213870;22;20195;-96
2022/03/09 09:36:20;;;;;;;18.90;11.33;;;;;;;1.86;53.10;96887.25;6155934;23;20190;-96
2022/03/09 09:39:18;;;;;;;17.20;10.40;;;;;;;3.04;51.87;97060.06;6171913;23;20170;-96
2022/03/09 09:41:54;;;;;;;18.90;10.07;;;;;;;3.26;51.26;97072.47;6144066;23;20197;-96
2022/03/09 09:45:00;;;;;;;21.20;11.50;;;;;;;3.09;51.83;97025.03;6141325;23;20627;-96
2022/03/09 09:47:36;;;;;;;19.00;10.97;;;;;;;2.91;51.91;97007.41;6122694;23;20174;-95
2022/03/09 09:50:13;;;;;;;16.13;10.93;;;;;;;2.83;51.99;96989.63;6147715;23;20175;-96
2022/03/09 09:53:06;;;;;;;20.47;11.77;;;;;;;3.15;52.63;97074.34;6127066;23;20186;-96
2022/03/09 09:55:35;;;;;;;19.73;12.30;;;;;;;2.12;52.78;96855.34;6149526;23;20174;-96
2022/03/09 09:58:11;;;;;;;19.97;11.10;;;;;;;3.12;51.79;97004.50;6124731;23;20187;-96
2022/03/09 10:00:45;;;;;;;17.70;10.43;;;;;;;2.76;52.77;96936.09;6172157;23;20201;-96
2022/03/09 10:03:24;;;;;;;19.43;10.17;;;;;;;3.59;52.36;97072.75;6169654;23;20202;-96
2022/03/09 10:05:59;;;;;;;16.63;9.97;;;;;;;2.42;50.66;96907.69;6167675;23;20182;-96
2022/03/09 10:08:35;;;;;;;15.83;9.43;;;;;;;2.32;51.46;96909.53;6145027;23;20258;-96
2022/03/09 10:11:08;;;;;;;17.17;9.10;;;;;;;2.66;50.98;96981.38;6141433;23;20173;-96
2022/03/09 10:13:38;;;;;;;12.40;7.43;;;;;;;3.17;50.19;97066.66;6142139;23;20181;-96
2022/03/09 10:16:10;;;;;;;16.63;9.73;;;;;;;2.69;51.09;97004.38;6118150;23;20674;-96
2022/03/09 10:18:55;;;;;;;15.67;9.40;;;;;;;3.37;50.68;97054.38;6166236;23;20595;-96
2022/03/09 10:21:40;;;;;;;16.93;9.67;;;;;;;2.88;50.35;96987.88;6146872;23;20831;-96
2022/03/09 10:24:34;;;;;;;14.77;9.30;;;;;;;2.90;49.00;97009.13;6122196;23;20182;-96
2022/03/09 10:27:07;;;;;;;9.60;6.87;;;;;;;1.98;48.86;96890.47;6235928;22;20172;-96
2022/03/09 10:29:38;;;;;;;9.57;5.90;;;;;;;2.30;48.03;96981.97;6232807;22;20168;-96
2022/03/09 10:32:19;;;;;;;14.17;8.87;;;;;;;2.33;48.62;96982.75;6232441;22;20579;-96
2022/03/09 10:35:06;;;;;;;21.43;10.50;;;;;;;1.73;48.91;96876.41;6241941;22;20238;-96
2022/03/09 10:37:45;;;;;;;15.80;9.63;;;;;;;2.47;49.61;97005.56;6211286;22;20172;-96
2022/03/09 10:40:21;;;;;;;20.43;8.90;;;;;;;2.58;50.07;97001.13;6234124;22;20275;-96
2022/03/09 10:43:19;;;;;;;15.37;10.30;;;;;;;3.05;50.03;97054.09;6232341;22;20700;-96
2022/03/09 10:46:09;;;;;;;14.20;8.97;;;;;;;2.97;48.57;97051.63;6231482;22;20173;-96
2022/03/09 10:48:52;;;;;;;15.93;9.27;;;;;;;2.55;49.62;96990.09;6204982;22;20639;-96
2022/03/09 10:51:41;;;;;;;15.47;9.07;;;;;;;2.92;48.43;97045.75;6208626;22;20172;-96
2022/03/09 10:54:38;;;;;;;13.00;9.13;;;;;;;3.01;48.76;97053.25;6239536;22;20175;-96
2022/03/09 10:57:44;;;;;;;16.57;9.80;;;;;;;2.98;49.29;96984.28;6239389;22;20184;-96
2022/03/09 11:01:03;;;;;;;16.23;9.63;;;;;;;3.32;48.18;97033.13;6262919;22;20590;-96
2022/03/09 11:04:19;;;;;;;20.60;11.30;;;;;;;2.70;48.55;96920.84;6234136;22;20183;-96
2022/03/09 11:06:57;;;;;;;11.90;8.20;;;;;;;2.91;47.95;96941.75;6219372;22;20183;-96
2022/03/09 11:09:32;;;;;;;16.30;9.10;;;;;;;3.50;49.53;97031.97;6185357;22;20254;-96
2022/03/09 11:12:03;;;;;;;18.37;11.13;;;;;;;3.01;50.43;96911.78;6185417;22;20169;-96
2022/03/09 11:14:54;;;;;;;22.53;11.27;;;;;;;3.55;49.98;96958.47;6213072;22;20178;-96
2022/03/09 11:17:41;;;;;;;16.97;9.47;;;;;;;3.15;48.88;96882.47;6233997;22;20195;-96
2022/03/09 11:20:27;;;;;;;18.47;10.40;;;;;;;3.47;49.16;96921.94;6231892;22;20210;-96
2022/03/09 11:22:59;;;;;;;14.97;9.07;;;;;;;3.59;48.74;96937.91;6229281;22;20168;-96
2022/03/09 11:25:31;;;;;;;13.23;8.27;;;;;;;3.32;47.69;96876.22;6235045;22;20172;-96
2022/03/09 11:28:01;;;;;;;16.30;10.20;;;;;;;3.46;48.42;96858.84;6241053;22;20169;-96
2022/03/09 11:31:00;;;;;;;16.13;10.83;;;;;;;3.78;47.64;96880.31;6247762;22;20188;-96
2022/03/09 11:33:56;;;;;;;14.03;9.13;;;;;;;4.70;48.11;97021.72;6185994;23;20193;-96
2022/03/09 11:36:37;;;;;;;13.33;8.50;;;;;;;3.94;47.14;96842.38;6178154;23;20175;-96
2022/03/09 11:39:28;;;;;;;15.93;8.30;;;;;;;4.68;46.33;96935.44;6145448;23;20180;-96
2022/03/09 11:42:28;;;;;;;12.23;8.07;;;;;;;4.78;43.99;97012.13;6176484;23;20198;-95
2022/03/09 11:45:16;;;;;;;15.57;8.40;;;;;;;4.65;45.17;97008.19;6198617;23;20195;-96
2022/03/09 11:48:20;;;;;;;15.13;9.33;;;;;;;4.41;45.54;96947.19;6099447;23;20212;-96
2022/03/09 11:51:10;;;;;;;13.30;8.50;;;;;;;4.26;44.58;96915.97;6104225;23;20307;-96
2022/03/09 11:53:41;;;;;;;10.33;6.83;;;;;;;4.79;44.26;97013.84;6137284;23;20235;-96
2022/03/09 11:56:37;;;;;;;12.20;7.07;;;;;;;4.83;43.36;97005.19;6115008;23;20222;-96
2022/03/09 11:59:17;;;;;;;15.80;8.27;;;;;;;4.69;42.57;97002.09;6086778;23;20243;-95
2022/03/09 12:02:13;;;;;;;10.07;6.83;;;;;;;4.31;43.09;97014.94;6089939;23;20232;-96
2022/03/09 12:04:53;;;;;;;9.33;6.50;;;;;;;3.82;43.86;96950.25;6092838;23;20170;-96
2022/03/09 12:08:15;;;;;;;11.83;7.60;;;;;;;4.39;46.45;96954.09;6092888;23;20203;-96
2022/03/09 12:11:01;;;;;;;11.80;6.83;;;;;;;3.91;46.30;96881.75;6096695;23;20211;-96
2022/03/09 12:13:46;;;;;;;10.63;6.57;;;;;;;3.53;43.72;96830.53;6118544;23;20234;-96
2022/03/09 12:16:28;;;;;;;10.93;6.73;;;;;;;3.68;45.81;96839.59;6069734;23;20262;-96
2022/03/09 12:19:43;;;;;;;10.57;7.07;;;;;;;4.13;52.65;97015.34;6170012;22;20174;-96
2022/03/09 12:23:20;;;;;;;12.77;8.17;;;;;;;3.72;53.45;97012.75;6185234;22;20193;-95
2022/03/09 12:26:56;;;;;;;13.43;6.87;;;;;;;3.28;52.56;96954.72;6211439;22;20241;-96
2022/03/09 12:29:54;;;;;;;9.53;6.77;;;;;;;3.54;51.51;97006.28;6237788;23;20169;-96
2022/03/09 12:32:43;;;;;;;12.20;7.07;;;;;;;3.76;49.63;97007.56;6136112;23;20199;-95
2022/03/09 12:36:04;;;;;;;12.67;7.33;;;;;;;3.20;47.88;96906.28;6148604;23;20170;-96
2022/03/09 12:39:37;;;;;;;10.17;7.20;;;;;;;3.86;45.78;97003.09;6189651;23;20213;-96
2022/03/09 12:42:07;;;;;;;10.90;6.97;;;;;;;3.37;46.49;96910.22;6175862;23;20213;-96
2022/03/09 12:44:53;;;;;;;10.90;6.60;;;;;;;3.56;45.53;96924.34;6132401;23;20222;-96